Rock Springs Sweetwater County Airport
KRKS : now visible

Airfield :











YOU CAN JOIN US ON...

 
LOGIN :

Register | Disclaimer

   EN    FR    IT 

 









Legend :    VFR   Marginal VFR   IFR   Intensive IFR   Very Intensive IFR
Visi :
Ceiling :
>= 8 km
>= 3000ft
5 to 8 km
1000 to 3000 ft
1500m to 5 km
500 to 1000 ft
800 to 1500m
200 to 500 ft
< 800m
< 200 ft
Symbols :   Thunderstorms  Fog  Heavy snow  Heavy precipitations  Wind > 20 kt






- Airport Elevation : 6764 ft
- IATA code : RKS


KRKS - Rock Springs Sweetwater County

CURRENT METAR :
  • 121754Z AUTO 25028G36KT 10SM CLR 02/M03 A3006 RMK AO2 PK WND 25036/1752 SLP190 60000 T00221028 10022 21022 58004

EXPIRED METARs :
  • 121654Z AUTO 23010G20KT 10SM SCT032 00/M04 A3009 RMK AO2 SLP206 T00001039
  • 121554Z AUTO 24016G26KT 10SM FEW100 M01/M04 A3007 RMK AO2 PK WND 24026/1546 SNE15 SLP204 P0000 T10061039

TAF KRKS
Valid from the 12 at 18:00 until the 13 at 18:00 UTC


121735Z 1218/1318 25016G26KT P6SM SCT040 BKN100
FM122000 26025G35KT P6SM VCSH SCT025 OVC040
FM130300 26020G30KT P6SM VCSH SCT020 OVC035
FM131500 26025G35KT P6SM SCT035 BKN080



MET'MAP, your aeronautical weather chart ! - Copyright ORBIFLY December 2007 - Disclaimer

ORBIFLY MET'MAP TEAM :

Programming & Development : Alexandra Zaïnal
Concept & original design : Baudouin d'Aumeries
Assistance for programming : Marc-Olivier Méhu
Technical & hardware support : Manuel Goepfert

Contact : metmap@orbifly.com




SOURCES & CREDITS :

   NOAA       Earth
Advisory